createdAt,value
2019-05-06T00:00:53.424Z,99.9939
2019-05-06T00:01:46.627Z,99.9939
2019-05-06T00:02:48.800Z,99.9939
2019-05-06T00:03:49.971Z,99.9939
2019-05-06T00:04:54.068Z,99.9939
2019-05-06T00:05:56.105Z,99.9939
2019-05-06T00:06:58.000Z,99.9939
2019-05-06T00:08:00.075Z,99.9939
2019-05-06T00:09:03.824Z,99.9939
2019-05-06T00:10:05.890Z,99.9939
2019-05-06T00:11:07.759Z,99.9939
2019-05-06T00:12:08.803Z,99.9939
2019-05-06T00:13:11.016Z,99.9939
2019-05-06T00:14:14.133Z,99.9939
2019-05-06T00:15:16.067Z,99.9939
2019-05-06T00:16:18.010Z,99.9939
2019-05-06T00:17:19.839Z,99.9939
2019-05-06T00:18:22.023Z,99.9939
2019-05-06T00:19:24.733Z,99.9939
2019-05-06T00:20:26.690Z,99.9939
2019-05-06T00:21:28.576Z,99.9939
2019-05-06T00:22:30.454Z,99.9939
2019-05-06T00:23:32.632Z,99.9939
2019-05-06T00:24:34.849Z,99.9939
2019-05-06T00:25:36.751Z,99.9939
2019-05-06T00:26:38.614Z,99.9939
2019-05-06T00:27:40.522Z,99.9939
2019-05-06T00:28:44.616Z,99.9939
2019-05-06T00:29:46.946Z,99.9939
2019-05-06T00:30:48.352Z,99.9939
2019-05-06T00:31:50.233Z,99.9939
2019-05-06T00:32:53.831Z,99.9939
2019-05-06T00:33:55.772Z,99.9939
2019-05-06T00:34:57.523Z,99.9939
2019-05-06T00:36:00.447Z,99.9939
2019-05-06T00:37:03.802Z,99.9939
2019-05-06T00:38:05.166Z,99.9939
2019-05-06T00:39:06.392Z,99.9939
2019-05-06T00:40:07.584Z,99.9939
2019-05-06T00:41:09.430Z,99.9939
2019-05-06T00:42:11.358Z,99.9939
2019-05-06T00:43:14.036Z,99.9939
2019-05-06T00:44:16.026Z,99.9939
2019-05-06T00:45:18.138Z,99.9939
2019-05-06T00:46:19.926Z,99.9939
2019-05-06T00:47:21.868Z,99.9939
2019-05-06T00:48:24.442Z,99.9939
2019-05-06T00:49:25.717Z,99.9939
2019-05-06T00:50:27.968Z,99.9939
2019-05-06T00:51:29.857Z,99.9939
2019-05-06T00:52:33.864Z,99.9939
2019-05-06T00:53:35.840Z,99.9939
2019-05-06T00:54:37.700Z,99.9939
2019-05-06T00:55:40.010Z,99.9939
2019-05-06T00:56:41.824Z,99.9939
2019-05-06T00:57:44.111Z,99.9939
2019-05-06T00:58:45.515Z,99.9939
2019-05-06T00:59:47.407Z,99.9939
2019-05-06T01:00:49.650Z,99.9939
2019-05-06T01:01:53.751Z,99.9939
2019-05-06T01:02:55.824Z,99.9939
2019-05-06T01:03:57.777Z,99.9939
2019-05-06T01:04:59.631Z,99.9939
2019-05-06T01:06:03.743Z,99.9939
2019-05-06T01:07:05.782Z,99.9939
2019-05-06T01:08:05.986Z,99.9939
2019-05-06T01:09:07.804Z,99.9939
2019-05-06T01:10:09.891Z,99.9939
2019-05-06T01:11:12.025Z,99.9939
2019-05-06T01:12:14.365Z,99.9939
2019-05-06T01:13:15.293Z,99.9939
2019-05-06T01:14:17.105Z,99.9939
2019-05-06T01:15:18.295Z,99.9939
2019-05-06T01:16:20.444Z,99.9939
2019-05-06T01:17:23.894Z,99.9939
2019-05-06T01:18:26.226Z,99.9939
2019-05-06T01:19:28.137Z,99.9939
2019-05-06T01:20:30.030Z,99.9939
2019-05-06T01:21:34.092Z,99.9939
2019-05-06T01:22:36.209Z,99.9939
2019-05-06T01:23:38.090Z,99.9939
2019-05-06T01:24:40.030Z,99.9939
2019-05-06T01:25:43.816Z,99.9939
2019-05-06T01:26:45.158Z,99.9939
2019-05-06T01:27:47.061Z,99.9939
2019-05-06T01:28:49.028Z,99.9939
2019-05-06T01:29:50.227Z,99.9939
2019-05-06T01:30:53.555Z,99.9939
2019-05-06T01:31:55.735Z,99.9939
2019-05-06T01:32:57.622Z,99.9939
2019-05-06T01:33:59.587Z,99.9939
2019-05-06T01:35:01.497Z,99.9939
2019-05-06T01:36:04.520Z,99.9939
2019-05-06T01:37:06.858Z,99.9939
2019-05-06T01:38:08.726Z,99.9939
2019-05-06T01:39:10.595Z,99.9939
2019-05-06T01:40:14.338Z,99.9939
2019-05-06T01:41:16.223Z,99.9939
2019-05-06T01:42:18.306Z,99.9939
2019-05-06T01:43:20.162Z,99.9939
2019-05-06T01:44:22.000Z,99.9939
2019-05-06T01:45:23.757Z,99.9939
2019-05-06T01:46:25.637Z,99.9939
2019-05-06T01:47:26.907Z,99.9939
2019-05-06T01:48:28.127Z,99.9939
2019-05-06T01:49:29.046Z,99.9939
2019-05-06T01:50:30.942Z,99.9939
2019-05-06T01:51:34.786Z,99.9939
2019-05-06T01:52:37.094Z,99.9939
2019-05-06T01:53:39.007Z,99.9939
2019-05-06T01:54:40.988Z,99.9939
2019-05-06T01:55:43.764Z,99.9939
2019-05-06T01:56:45.663Z,99.9939
2019-05-06T01:57:47.950Z,99.9939
2019-05-06T01:58:49.827Z,99.9939
2019-05-06T01:59:53.422Z,99.9939
2019-05-06T02:00:55.744Z,99.9939
2019-05-06T02:02:00.956Z,99.9939
2019-05-06T02:03:04.024Z,99.9939
2019-05-06T02:04:06.110Z,99.9939
2019-05-06T02:05:08.042Z,99.9939
2019-05-06T02:06:09.951Z,99.9939
2019-05-06T02:07:11.801Z,99.9939
2019-05-06T02:08:14.048Z,99.9939
2019-05-06T02:09:15.984Z,99.9939
2019-05-06T02:10:17.898Z,99.9939
2019-05-06T02:11:19.846Z,99.9939
2019-05-06T02:12:21.776Z,99.9939
2019-05-06T02:13:24.030Z,99.9939
2019-05-06T02:14:26.008Z,99.9939
2019-05-06T02:15:27.821Z,99.9939
2019-05-06T02:16:29.757Z,99.9939
2019-05-06T02:17:30.611Z,99.9939
2019-05-06T02:18:33.930Z,99.9939
2019-05-06T02:19:35.950Z,99.9939
2019-05-06T02:20:37.876Z,99.9939
2019-05-06T02:21:39.739Z,99.9939
2019-05-06T02:22:41.630Z,99.9939
2019-05-06T02:23:44.176Z,99.9939
2019-05-06T02:24:46.015Z,99.9939
2019-05-06T02:25:47.802Z,99.9939
2019-05-06T02:26:49.009Z,99.9939
2019-05-06T02:27:50.202Z,99.9939
2019-05-06T02:28:51.428Z,99.9939
2019-05-06T02:29:54.343Z,99.9939
2019-05-06T02:30:56.302Z,99.9939
2019-05-06T02:32:16.017Z,99.9939
2019-05-06T02:33:04.579Z,99.9939
2019-05-06T02:34:06.674Z,99.9939
2019-05-06T02:35:08.602Z,99.9939
2019-05-06T02:36:10.509Z,99.9939
2019-05-06T02:37:14.662Z,99.9939
2019-05-06T02:38:16.776Z,99.9939
2019-05-06T02:39:18.913Z,99.9939
2019-05-06T02:40:24.209Z,99.9939
2019-05-06T02:41:26.436Z,99.9939
2019-05-06T02:42:28.351Z,99.9939
2019-05-06T02:43:30.203Z,99.9939
2019-05-06T02:44:33.607Z,99.9939
2019-05-06T02:45:35.687Z,99.9939
2019-05-06T02:46:37.713Z,99.9939
2019-05-06T02:47:39.560Z,99.9939
2019-05-06T02:48:43.254Z,99.9939
2019-05-06T02:49:44.650Z,99.9939
2019-05-06T02:50:45.848Z,99.9939
2019-05-06T02:51:47.724Z,99.9939
2019-05-06T02:52:49.598Z,99.9939
2019-05-06T02:53:53.897Z,99.9939
2019-05-06T02:54:56.231Z,99.9939
2019-05-06T02:55:58.177Z,99.9939
2019-05-06T02:57:00.036Z,99.9939
2019-05-06T02:58:02.817Z,99.9939
2019-05-06T02:59:04.261Z,99.9939
2019-05-06T03:00:05.556Z,99.9939
2019-05-06T03:01:06.786Z,99.9939
2019-05-06T03:02:07.998Z,99.9939
2019-05-06T03:03:09.840Z,99.9939
2019-05-06T03:04:13.094Z,99.9939
2019-05-06T03:05:15.572Z,99.9939
2019-05-06T03:06:17.439Z,99.9939
2019-05-06T03:07:19.369Z,99.9939
2019-05-06T03:08:23.669Z,99.9939
2019-05-06T03:09:25.561Z,99.9939
2019-05-06T03:10:27.786Z,99.9939
2019-05-06T03:11:29.698Z,99.9939
2019-05-06T03:12:33.555Z,99.9939
2019-05-06T03:13:35.687Z,99.9939
2019-05-06T03:14:37.584Z,99.9939
2019-05-06T03:15:39.660Z,99.9939
2019-05-06T03:16:43.939Z,99.9939
2019-05-06T03:17:46.042Z,99.9939
2019-05-06T03:18:47.245Z,99.9939
2019-05-06T03:19:49.172Z,99.9939
2019-05-06T03:20:53.306Z,99.9939
2019-05-06T03:21:55.434Z,99.9939
2019-05-06T03:22:57.418Z,99.9939
2019-05-06T03:23:59.290Z,99.9939
2019-05-06T03:25:06.347Z,99.9939
2019-05-06T03:26:07.722Z,99.9939
2019-05-06T03:27:09.683Z,99.9939
2019-05-06T03:28:13.279Z,99.9939
2019-05-06T03:29:15.240Z,99.9939
2019-05-06T03:30:17.439Z,99.9939
2019-05-06T03:31:19.712Z,99.9939
2019-05-06T03:32:24.918Z,99.9939
2019-05-06T03:33:47.811Z,99.9939
2019-05-06T03:34:52.212Z,99.9939
2019-05-06T03:35:56.013Z,99.9939
2019-05-06T03:36:48.980Z,99.9939
2019-05-06T03:37:53.375Z,99.9939
2019-05-06T03:38:55.370Z,99.9939
2019-05-06T03:39:56.590Z,99.9939
2019-05-06T03:40:57.832Z,99.9939
2019-05-06T03:41:58.028Z,99.9939
2019-05-06T03:43:02.629Z,99.9939
2019-05-06T03:44:04.735Z,99.9939
2019-05-06T03:45:06.629Z,99.9939
2019-05-06T03:46:08.571Z,99.9939
2019-05-06T03:47:13.658Z,99.9939
2019-05-06T03:48:16.606Z,99.9939
2019-05-06T03:49:17.799Z,99.9939
2019-05-06T03:50:19.927Z,99.9939
2019-05-06T03:51:23.331Z,99.9939
2019-05-06T03:52:25.403Z,99.9939
2019-05-06T03:53:27.583Z,99.9939
2019-05-06T03:54:29.466Z,99.9939
2019-05-06T03:55:33.990Z,99.9939
2019-05-06T03:56:36.089Z,99.9939
2019-05-06T03:57:37.969Z,99.9939
2019-05-06T03:58:43.282Z,99.9939
2019-05-06T03:59:45.546Z,99.9939
2019-05-06T04:00:46.771Z,99.9939
2019-05-06T04:01:48.111Z,99.9939
2019-05-06T04:02:49.955Z,99.9939
2019-05-06T04:03:53.746Z,99.9939
2019-05-06T04:04:58.467Z,99.9939
2019-05-06T04:06:00.318Z,99.9939
2019-05-06T04:07:03.344Z,99.9939
2019-05-06T04:08:05.425Z,99.9939
2019-05-06T04:09:07.241Z,99.9939
2019-05-06T04:10:09.176Z,99.9939
2019-05-06T04:11:10.030Z,99.9939
2019-05-06T04:12:12.817Z,99.9939
2019-05-06T04:13:14.123Z,99.9939
2019-05-06T04:14:14.326Z,99.9939
2019-05-06T04:15:16.098Z,99.9939
2019-05-06T04:16:18.010Z,99.9939
2019-05-06T04:17:19.796Z,99.9939
2019-05-06T04:18:23.926Z,99.9939
2019-05-06T04:19:26.200Z,99.9939
2019-05-06T04:20:28.106Z,99.9939
2019-05-06T04:21:29.234Z,99.9939
2019-05-06T04:22:33.241Z,99.9939
2019-05-06T04:23:35.319Z,99.9939
2019-05-06T04:24:37.400Z,99.9939
2019-05-06T04:25:39.277Z,99.9939
2019-05-06T04:26:46.083Z,99.9939
2019-05-06T04:27:47.530Z,99.9939
2019-05-06T04:28:49.406Z,99.9939
2019-05-06T04:29:54.418Z,99.9939
2019-05-06T04:30:56.649Z,99.9939
2019-05-06T04:31:58.518Z,99.9939
2019-05-06T04:33:03.120Z,99.9939
2019-05-06T04:34:13.935Z,99.9939
2019-05-06T04:35:13.502Z,99.9939
2019-05-06T04:36:15.588Z,99.9939
2019-05-06T04:37:17.427Z,99.9939
2019-05-06T04:38:19.310Z,99.9939
2019-05-06T04:39:23.381Z,99.9939
2019-05-06T04:40:25.629Z,99.9939
2019-05-06T04:41:27.686Z,99.9939
2019-05-06T04:42:29.505Z,99.9939
2019-05-06T04:43:33.734Z,99.9939
2019-05-06T04:44:35.741Z,99.9939
2019-05-06T04:45:37.741Z,99.9939
2019-05-06T04:46:39.982Z,99.9939
2019-05-06T04:47:43.438Z,99.9939
2019-05-06T04:48:45.438Z,99.9939
2019-05-06T04:49:47.198Z,99.9939
2019-05-06T04:50:49.088Z,99.9939
2019-05-06T04:51:53.838Z,99.9939
2019-05-06T04:52:56.554Z,99.9939
2019-05-06T04:53:58.418Z,99.9939
2019-05-06T04:55:00.285Z,99.9939
2019-05-06T04:56:04.572Z,99.9939
2019-05-06T04:57:05.794Z,99.9939
2019-05-06T04:58:07.653Z,99.9939
2019-05-06T04:59:08.633Z,99.9939
2019-05-06T05:00:13.012Z,99.9939
2019-05-06T05:01:15.879Z,99.9939
2019-05-06T05:02:18.070Z,99.9939
2019-05-06T05:03:22.521Z,99.9939
2019-05-06T05:04:32.137Z,99.9939
2019-05-06T05:05:33.064Z,99.9939
2019-05-06T05:06:34.572Z,99.9939
2019-05-06T05:07:36.874Z,99.9939
2019-05-06T05:08:38.795Z,99.9939
2019-05-06T05:09:42.817Z,99.9939
2019-05-06T05:10:44.822Z,99.9939
2019-05-06T05:11:46.780Z,99.9939
2019-05-06T05:12:48.965Z,99.9939
2019-05-06T05:13:53.155Z,99.9939
2019-05-06T05:14:54.307Z,99.9939
2019-05-06T05:15:56.275Z,99.9939
2019-05-06T05:16:58.124Z,99.9939
2019-05-06T05:18:00.265Z,99.9939
2019-05-06T05:19:02.741Z,99.9939
2019-05-06T05:20:04.763Z,99.9939
2019-05-06T05:21:06.772Z,99.9939
2019-05-06T05:22:08.652Z,99.9939
2019-05-06T05:23:11.868Z,99.9939
2019-05-06T05:24:13.924Z,99.9939
2019-05-06T05:25:15.766Z,99.9939
2019-05-06T05:26:17.876Z,99.9939
2019-05-06T05:27:21.459Z,99.9939
2019-05-06T05:28:24.101Z,99.9939
2019-05-06T05:29:26.076Z,99.9939
2019-05-06T05:30:27.940Z,99.9939
2019-05-06T05:31:29.114Z,99.9939
2019-05-06T05:32:32.114Z,99.9939
2019-05-06T05:33:34.435Z,99.9939
2019-05-06T05:34:40.594Z,99.9939
2019-05-06T05:35:43.375Z,99.9939
2019-05-06T05:36:43.611Z,99.9939
2019-05-06T05:37:44.808Z,99.9939
2019-05-06T05:38:46.367Z,99.8241
2019-05-06T05:39:48.254Z,99.0810
2019-05-06T05:40:52.226Z,98.6059
2019-05-06T05:41:54.427Z,98.5348
2019-05-06T05:42:56.406Z,97.9735
2019-05-06T05:43:58.284Z,97.1985
2019-05-06T05:45:02.673Z,97.1093
2019-05-06T05:46:04.063Z,96.7382
2019-05-06T05:47:05.020Z,96.7347
2019-05-06T05:48:15.575Z,96.4110
2019-05-06T05:49:20.177Z,95.7471
2019-05-06T05:50:24.261Z,95.2992
2019-05-06T05:51:26.263Z,95.7036
2019-05-06T05:52:28.064Z,95.7510
2019-05-06T05:53:29.942Z,95.5651
2019-05-06T05:54:33.184Z,95.1262
2019-05-06T05:55:35.180Z,94.9060
2019-05-06T05:56:37.066Z,95.3184
2019-05-06T05:57:39.021Z,95.2747
2019-05-06T05:58:42.485Z,95.2741
2019-05-06T05:59:44.383Z,94.5772
2019-05-06T06:00:46.550Z,92.8958
2019-05-06T06:01:48.466Z,92.1421
2019-05-06T06:02:52.977Z,91.7779
2019-05-06T06:03:55.018Z,91.1982
2019-05-06T06:04:57.779Z,89.3761
2019-05-06T06:06:00.088Z,89.0427
2019-05-06T06:07:02.759Z,89.2755
2019-05-06T06:08:04.839Z,89.4094
2019-05-06T06:09:06.611Z,89.7313
2019-05-06T06:10:13.941Z,88.7667
2019-05-06T06:11:16.245Z,88.1538
2019-05-06T06:12:18.089Z,88.6690
2019-05-06T06:13:22.160Z,87.3542
2019-05-06T06:14:24.173Z,88.7229
2019-05-06T06:15:25.952Z,89.2210
2019-05-06T06:16:27.149Z,87.2070
2019-05-06T06:17:29.049Z,87.2698
2019-05-06T06:18:33.231Z,85.6330
2019-05-06T06:19:35.266Z,86.3156
2019-05-06T06:20:37.127Z,85.3497
2019-05-06T06:21:39.299Z,84.3910
2019-05-06T06:22:42.521Z,82.5294
2019-05-06T06:23:44.394Z,81.5196
2019-05-06T06:24:46.253Z,81.6253
2019-05-06T06:25:47.473Z,79.9652
2019-05-06T06:26:48.663Z,80.1788
2019-05-06T06:27:51.994Z,81.5619
2019-05-06T06:28:53.453Z,83.2188
2019-05-06T06:29:55.555Z,83.2475
2019-05-06T06:30:57.474Z,81.2663
2019-05-06T06:32:00.020Z,79.7389
2019-05-06T06:33:04.915Z,79.8668
2019-05-06T06:34:06.283Z,80.5692
2019-05-06T06:35:11.374Z,80.1789
2019-05-06T06:36:14.444Z,79.1673
2019-05-06T06:37:16.841Z,77.3758
2019-05-06T06:38:19.512Z,78.8063
2019-05-06T06:39:22.893Z,78.2755
2019-05-06T06:40:25.223Z,77.2423
2019-05-06T06:41:27.612Z,77.1183
2019-05-06T06:42:29.912Z,76.3489
2019-05-06T06:43:32.462Z,75.9113
2019-05-06T06:44:34.552Z,77.0910
2019-05-06T06:45:36.486Z,74.2875
2019-05-06T06:46:38.763Z,73.4962
2019-05-06T06:47:42.949Z,69.3352
2019-05-06T06:48:45.324Z,67.5912
2019-05-06T06:49:47.461Z,64.0341
2019-05-06T06:50:51.745Z,64.1278
2019-05-06T06:51:54.655Z,62.6193
2019-05-06T06:52:56.826Z,61.2294
2019-05-06T06:53:59.327Z,60.1534
2019-05-06T06:55:03.669Z,61.3644
2019-05-06T06:57:17.065Z,60.4448
2019-05-06T06:58:19.605Z,60.6743
2019-05-06T06:59:22.198Z,59.2931
2019-05-06T07:00:24.279Z,61.1702
2019-05-06T07:01:26.369Z,61.5604
2019-05-06T07:02:28.184Z,58.4829
2019-05-06T07:03:32.724Z,57.8117
2019-05-06T07:04:34.918Z,59.4072
2019-05-06T07:05:36.138Z,61.2024
2019-05-06T07:06:37.325Z,59.4380
2019-05-06T07:07:43.650Z,61.8188
2019-05-06T07:08:45.581Z,56.3348
2019-05-06T07:09:47.713Z,56.1752
2019-05-06T07:10:49.581Z,56.6800
2019-05-06T07:11:52.607Z,58.8448
2019-05-06T07:12:54.483Z,55.7489
2019-05-06T07:13:56.308Z,55.0664
2019-05-06T07:14:58.191Z,59.3429
2019-05-06T07:16:02.778Z,56.9729
2019-05-06T07:17:05.168Z,58.1275
2019-05-06T07:18:07.098Z,61.0979
2019-05-06T07:19:09.084Z,60.2775
2019-05-06T07:20:13.193Z,57.0221
2019-05-06T07:21:15.409Z,57.1086
2019-05-06T07:22:17.504Z,57.1425
2019-05-06T07:23:22.127Z,59.2910
2019-05-06T07:24:24.172Z,59.5582
2019-05-06T07:25:26.454Z,59.0184
2019-05-06T07:26:31.723Z,59.0531
2019-05-06T07:27:34.039Z,56.8442
2019-05-06T07:29:49.085Z,57.8788
2019-05-06T07:30:52.573Z,56.2186
2019-05-06T07:34:22.937Z,56.5255
2019-05-06T07:36:35.461Z,54.7454
2019-05-06T07:38:52.374Z,53.8865
2019-05-06T07:39:55.823Z,51.5884
2019-05-06T07:40:58.478Z,50.3893
2019-05-06T07:42:02.497Z,52.0563
2019-05-06T07:43:08.665Z,53.3323
2019-05-06T07:44:13.158Z,49.7064
2019-05-06T07:45:15.107Z,52.7112
2019-05-06T07:46:17.587Z,52.7694
2019-05-06T07:47:19.963Z,53.3408
2019-05-06T07:48:22.328Z,52.6786
2019-05-06T07:49:24.322Z,50.8289
2019-05-06T07:50:26.394Z,50.9894
2019-05-06T07:51:28.858Z,51.7260
2019-05-06T07:52:32.552Z,53.3828
2019-05-06T07:53:38.639Z,53.8119
2019-05-06T07:54:39.544Z,53.7719
2019-05-06T07:55:42.382Z,51.6266
2019-05-06T07:56:45.004Z,52.2937
2019-05-06T07:57:49.807Z,51.8859
2019-05-06T07:58:52.912Z,52.5348
2019-05-06T07:59:54.946Z,51.4100
2019-05-06T08:00:56.975Z,52.7428
2019-05-06T08:01:58.223Z,52.9905
2019-05-06T08:03:02.525Z,53.5451
2019-05-06T08:04:04.550Z,55.2255
2019-05-06T08:06:18.526Z,47.9159
2019-05-06T08:07:22.289Z,46.9573
2019-05-06T08:08:25.495Z,46.3311
2019-05-06T08:09:27.642Z,46.3675
2019-05-06T08:10:33.153Z,48.7666
2019-05-06T08:11:35.872Z,49.7217
2019-05-06T08:12:38.919Z,51.5848
2019-05-06T08:13:43.190Z,52.0315
2019-05-06T08:14:47.415Z,51.1323
2019-05-06T08:15:52.901Z,49.2413
2019-05-06T08:16:55.932Z,50.5796
2019-05-06T08:17:59.303Z,50.2811
2019-05-06T08:19:02.800Z,48.7508
2019-05-06T08:20:04.849Z,47.7684
2019-05-06T08:21:08.004Z,47.7982
2019-05-06T08:22:12.009Z,45.9207
2019-05-06T08:23:17.711Z,47.6021
2019-05-06T08:24:19.529Z,45.8721
2019-05-06T08:25:22.948Z,48.8300
2019-05-06T08:26:25.479Z,46.2490
2019-05-06T08:27:27.800Z,45.5378
2019-05-06T08:28:40.330Z,46.9141
2019-05-06T08:29:39.699Z,46.8043
2019-05-06T08:30:43.090Z,49.1385
2019-05-06T08:31:45.957Z,48.1745
2019-05-06T08:32:52.826Z,45.6811
2019-05-06T08:33:55.131Z,49.3298
2019-05-06T08:34:57.710Z,52.6504
2019-05-06T08:36:11.735Z,54.5149
2019-05-06T08:37:08.934Z,50.8414
2019-05-06T08:38:12.238Z,50.3810
2019-05-06T08:39:14.480Z,45.2408
2019-05-06T08:40:17.104Z,45.2266
2019-05-06T08:41:20.074Z,44.8409
2019-05-06T08:43:32.728Z,50.8831
2019-05-06T08:44:35.683Z,51.1595
2019-05-06T08:45:37.084Z,51.3339
2019-05-06T08:46:38.324Z,53.9454
2019-05-06T08:47:39.738Z,56.3165
2019-05-06T08:48:42.970Z,54.8396
2019-05-06T08:49:44.936Z,52.2178
2019-05-06T08:50:47.446Z,53.4900
2019-05-06T08:51:49.503Z,53.4262
2019-05-06T08:52:55.074Z,53.4722
2019-05-06T08:53:57.719Z,53.1445
2019-05-06T08:55:04.854Z,53.8137
2019-05-06T08:56:06.188Z,53.0626
2019-05-06T08:57:11.789Z,52.7901
2019-05-06T08:58:13.963Z,49.8328
2019-05-06T08:59:15.767Z,44.8106
2019-05-06T09:00:18.073Z,42.7731
2019-05-06T09:01:22.387Z,42.3894
2019-05-06T09:02:24.927Z,46.3383
2019-05-06T09:03:29.256Z,45.7070
2019-05-06T09:04:32.193Z,47.6539
2019-05-06T09:05:34.710Z,47.5876
2019-05-06T09:06:37.582Z,49.2259
2019-05-06T09:07:39.670Z,47.5978
2019-05-06T09:08:42.968Z,44.7396
2019-05-06T09:09:45.228Z,43.2562
2019-05-06T09:10:47.952Z,43.7098
2019-05-06T09:11:50.516Z,45.2573
2019-05-06T09:12:52.770Z,46.7966
2019-05-06T09:13:55.683Z,48.9243
2019-05-06T09:14:56.890Z,47.5913
2019-05-06T09:17:12.096Z,46.9521
2019-05-06T09:18:15.254Z,49.7938
2019-05-06T09:19:18.187Z,49.1181
2019-05-06T09:20:20.551Z,51.2098
2019-05-06T09:21:24.463Z,51.1926
2019-05-06T09:22:26.514Z,52.6516
2019-05-06T09:24:42.556Z,48.5908
2019-05-06T09:25:44.969Z,50.4151
2019-05-06T09:26:52.249Z,48.6890
2019-05-06T09:27:54.632Z,51.1876
2019-05-06T09:28:57.642Z,50.2850
2019-05-06T09:30:03.109Z,51.0216
2019-05-06T09:32:14.098Z,49.4146
2019-05-06T09:33:15.349Z,49.8434
2019-05-06T09:34:28.146Z,49.6968
2019-05-06T09:35:32.810Z,49.2200
2019-05-06T09:36:43.789Z,47.2031
2019-05-06T09:37:53.441Z,48.7200
2019-05-06T09:38:55.460Z,47.9634
2019-05-06T09:41:08.977Z,48.5655
2019-05-06T09:42:13.630Z,48.5644
2019-05-06T09:43:18.065Z,48.8453
2019-05-06T09:44:26.895Z,51.5702
2019-05-06T09:45:33.048Z,52.0117
2019-05-06T09:46:38.509Z,56.1221
2019-05-06T09:47:42.473Z,53.3868
2019-05-06T09:48:46.432Z,50.0752
2019-05-06T09:49:48.505Z,52.9713
2019-05-06T09:50:53.780Z,52.3247
2019-05-06T09:51:56.626Z,52.3946
2019-05-06T09:53:02.407Z,52.3386
2019-05-06T09:54:04.958Z,53.4801
2019-05-06T09:55:06.531Z,48.5485
2019-05-06T09:56:13.174Z,47.9525
2019-05-06T09:57:19.515Z,48.5364
2019-05-06T09:58:24.203Z,46.8670
2019-05-06T09:59:25.425Z,46.0745
2019-05-06T10:00:28.213Z,44.7994
2019-05-06T10:01:34.570Z,46.5468
2019-05-06T10:02:38.908Z,46.7486
2019-05-06T10:03:42.895Z,44.8892
2019-05-06T10:04:47.637Z,47.5586
2019-05-06T10:05:53.579Z,46.9993
2019-05-06T10:07:02.711Z,47.9626
2019-05-06T10:08:08.500Z,48.0264
2019-05-06T10:09:15.862Z,49.0909
2019-05-06T10:10:19.142Z,47.7474
2019-05-06T10:11:22.255Z,44.8680
2019-05-06T10:12:25.073Z,47.0199
2019-05-06T10:13:32.706Z,47.9106
2019-05-06T10:14:35.277Z,46.0384
2019-05-06T10:15:38.910Z,48.2248
2019-05-06T10:16:42.997Z,46.6716
2019-05-06T10:17:47.049Z,47.0580
2019-05-06T10:18:52.388Z,45.5787
2019-05-06T10:19:53.963Z,47.8174
2019-05-06T10:21:00.466Z,49.6399
2019-05-06T10:22:03.581Z,49.1883
2019-05-06T10:23:07.859Z,47.3530
2019-05-06T10:24:11.013Z,48.4175
2019-05-06T10:25:15.482Z,48.4287
2019-05-06T10:26:18.969Z,49.4713
2019-05-06T10:27:23.494Z,49.5569
2019-05-06T10:28:27.304Z,48.2313
2019-05-06T10:29:28.566Z,47.1633
2019-05-06T10:30:33.283Z,46.0051
2019-05-06T10:31:43.278Z,45.6556
2019-05-06T10:32:46.077Z,46.9139
2019-05-06T10:33:59.372Z,46.6821
2019-05-06T10:35:03.960Z,47.5827
2019-05-06T10:36:06.825Z,46.2250
2019-05-06T10:37:15.303Z,46.2357
2019-05-06T10:38:17.674Z,45.6108
2019-05-06T10:39:22.929Z,45.8859
2019-05-06T10:40:24.215Z,45.0785
2019-05-06T10:41:25.488Z,44.1884
2019-05-06T10:42:36.520Z,45.0507
2019-05-06T10:43:43.259Z,45.9917
2019-05-06T10:45:54.864Z,45.3741
2019-05-06T10:46:57.527Z,46.0446
2019-05-06T10:47:59.018Z,45.6173
2019-05-06T10:49:02.551Z,47.5166
2019-05-06T10:50:04.643Z,49.1499
2019-05-06T10:51:04.904Z,46.6527
2019-05-06T10:52:12.717Z,48.5273
2019-05-06T10:53:15.028Z,47.5363
2019-05-06T10:54:16.955Z,45.3976
2019-05-06T10:55:23.206Z,45.8609
2019-05-06T10:56:27.462Z,45.8434
2019-05-06T10:57:29.928Z,48.9675
2019-05-06T10:58:36.221Z,49.0124
2019-05-06T10:59:38.073Z,43.4794
2019-05-06T11:00:39.277Z,41.8057
2019-05-06T11:01:42.649Z,39.8919
2019-05-06T11:02:46.886Z,43.2364
2019-05-06T11:03:49.751Z,44.8851
2019-05-06T11:04:55.988Z,44.5871
2019-05-06T11:05:59.602Z,42.3875
2019-05-06T11:07:04.021Z,43.5937
2019-05-06T11:08:08.538Z,41.8735
2019-05-06T11:09:13.498Z,40.7970
2019-05-06T11:10:24.424Z,43.5331
2019-05-06T11:11:32.630Z,45.5211
2019-05-06T11:12:29.703Z,41.4470
2019-05-06T11:13:32.366Z,43.5444
2019-05-06T11:14:37.723Z,44.9008
2019-05-06T11:15:43.140Z,43.8260
2019-05-06T11:16:45.660Z,42.2921
2019-05-06T11:17:48.712Z,42.1384
2019-05-06T11:18:53.521Z,43.7466
2019-05-06T11:19:56.220Z,46.0815
2019-05-06T11:20:57.994Z,46.7735
2019-05-06T11:22:03.394Z,46.0995
2019-05-06T11:23:08.950Z,44.8618
2019-05-06T11:24:12.397Z,44.7459
2019-05-06T11:25:15.306Z,44.0632
2019-05-06T11:26:18.689Z,43.7569
2019-05-06T11:27:31.120Z,42.4011
2019-05-06T11:28:30.005Z,43.7501
2019-05-06T11:30:43.590Z,44.6013
2019-05-06T11:31:47.968Z,43.1703
2019-05-06T11:32:50.128Z,42.4364
2019-05-06T11:33:52.567Z,44.1104
2019-05-06T11:36:09.414Z,45.1063
2019-05-06T11:37:12.068Z,51.5969
2019-05-06T11:38:16.685Z,49.6790
2019-05-06T11:39:23.292Z,48.4576
2019-05-06T11:41:39.213Z,47.5771
2019-05-06T11:42:43.618Z,47.1493
2019-05-06T11:43:45.066Z,47.0236
2019-05-06T11:44:48.113Z,49.4803
2019-05-06T11:45:52.587Z,49.1245
2019-05-06T11:46:57.668Z,49.3257
2019-05-06T11:48:02.377Z,48.2737
2019-05-06T11:49:03.507Z,49.3852
2019-05-06T11:50:05.510Z,50.3857
2019-05-06T11:51:07.451Z,50.2620
2019-05-06T11:52:08.997Z,48.8566
2019-05-06T11:53:12.549Z,49.6244
2019-05-06T11:54:20.875Z,49.1285
2019-05-06T11:55:32.529Z,50.9843
2019-05-06T11:56:46.971Z,48.9851
2019-05-06T11:57:39.020Z,50.1624
2019-05-06T11:58:42.474Z,50.5030
2019-05-06T11:59:44.200Z,46.1181
2019-05-06T12:00:45.406Z,47.8819
2019-05-06T12:01:48.150Z,45.9738
2019-05-06T12:02:49.391Z,43.2197
2019-05-06T12:03:49.604Z,46.4907
2019-05-06T12:04:52.795Z,45.0516
2019-05-06T12:05:54.258Z,43.3085
2019-05-06T12:07:10.349Z,43.8931
2019-05-06T12:08:07.939Z,43.5199
2019-05-06T12:09:13.937Z,45.6948
2019-05-06T12:10:15.804Z,45.3647
2019-05-06T12:11:16.985Z,43.2511
2019-05-06T12:12:18.176Z,42.5254
2019-05-06T12:13:19.404Z,42.7651
2019-05-06T12:14:22.712Z,45.4402
2019-05-06T12:15:24.059Z,43.6805
2019-05-06T12:16:26.376Z,41.5186
2019-05-06T12:17:28.670Z,41.9299
2019-05-06T12:18:30.941Z,41.8125
2019-05-06T12:19:32.544Z,40.6956
2019-05-06T12:20:32.972Z,42.2418
2019-05-06T12:21:34.868Z,45.4833
2019-05-06T12:22:37.622Z,44.6739
2019-05-06T12:23:38.822Z,44.4734
2019-05-06T12:24:43.034Z,43.7222
2019-05-06T12:25:47.092Z,45.7717
2019-05-06T12:26:52.216Z,44.3851
2019-05-06T12:27:56.510Z,41.0205
2019-05-06T12:29:02.182Z,44.7122
2019-05-06T12:30:05.204Z,44.8271
2019-05-06T12:31:06.759Z,43.4928
2019-05-06T12:32:08.603Z,43.4733
2019-05-06T12:33:13.014Z,41.8966
2019-05-06T12:34:16.876Z,43.8948
2019-05-06T12:35:19.281Z,47.0308
2019-05-06T12:36:24.475Z,44.5047
2019-05-06T12:37:27.806Z,44.4724
2019-05-06T12:38:31.243Z,46.5095
2019-05-06T12:39:34.088Z,48.6079
2019-05-06T12:40:36.109Z,49.7029
2019-05-06T12:41:42.876Z,49.0891
2019-05-06T12:42:44.384Z,48.1144
2019-05-06T12:43:45.629Z,47.2606
2019-05-06T12:44:46.869Z,47.9326
2019-05-06T12:45:48.130Z,47.2151
2019-05-06T13:06:17.472Z,48.9983
2019-05-06T13:26:38.928Z,52.1005
2019-05-06T13:36:47.360Z,50.4321
2019-05-06T13:37:48.616Z,51.7562
2019-05-06T13:40:57.043Z,53.5996
2019-05-06T14:03:17.716Z,51.7535
2019-05-06T14:05:19.073Z,51.2663
2019-05-06T14:06:20.270Z,52.4334
2019-05-06T14:20:27.635Z,52.0144
2019-05-06T14:23:29.417Z,53.4860
2019-05-06T14:32:37.383Z,52.8965
2019-05-06T14:52:47.902Z,51.1992
2019-05-06T15:21:57.307Z,55.7294
2019-05-06T15:22:58.494Z,55.3423